sensor_id;sensor_type;location;lat;lon;timestamp;P1;durP1;ratioP1;P2;durP2;ratioP2
40248;SDS011;25969;49.970;11.062;2023-03-20T05:09:31;12.80;;;8.60;;
40248;SDS011;25969;49.970;11.062;2023-03-20T05:19:36;14.82;;;9.27;;
40248;SDS011;25969;49.970;11.062;2023-03-20T05:29:46;14.10;;;10.05;;
40248;SDS011;25969;49.970;11.062;2023-03-20T05:39:56;15.73;;;10.00;;
40248;SDS011;25969;49.970;11.062;2023-03-20T05:50:09;14.68;;;9.02;;
40248;SDS011;25969;49.970;11.062;2023-03-20T06:00:30;13.15;;;8.48;;
40248;SDS011;25969;49.970;11.062;2023-03-20T06:11:07;14.80;;;9.88;;
40248;SDS011;25969;49.970;11.062;2023-03-20T06:21:11;18.23;;;10.93;;
40248;SDS011;25969;49.970;11.062;2023-03-20T06:31:12;18.17;;;10.40;;
40248;SDS011;25969;49.970;11.062;2023-03-20T06:41:13;19.97;;;13.37;;
40248;SDS011;25969;49.970;11.062;2023-03-20T06:51:14;22.63;;;13.30;;
40248;SDS011;25969;49.970;11.062;2023-03-20T07:01:24;21.70;;;12.80;;
40248;SDS011;25969;49.970;11.062;2023-03-20T07:11:25;19.13;;;12.63;;
40248;SDS011;25969;49.970;11.062;2023-03-20T07:21:28;23.75;;;13.55;;
40248;SDS011;25969;49.970;11.062;2023-03-20T07:31:30;24.93;;;13.70;;
40248;SDS011;25969;49.970;11.062;2023-03-20T07:42:00;23.73;;;14.70;;
40248;SDS011;25969;49.970;11.062;2023-03-20T07:52:31;21.92;;;14.05;;
40248;SDS011;25969;49.970;11.062;2023-03-20T08:02:31;23.10;;;14.50;;
40248;SDS011;25969;49.970;11.062;2023-03-20T08:12:33;24.23;;;13.95;;
40248;SDS011;25969;49.970;11.062;2023-03-20T08:22:34;22.63;;;14.25;;
40248;SDS011;25969;49.970;11.062;2023-03-20T08:32:35;22.80;;;14.95;;
40248;SDS011;25969;49.970;11.062;2023-03-20T08:42:36;20.13;;;13.30;;
40248;SDS011;25969;49.970;11.062;2023-03-20T08:52:37;24.38;;;13.80;;
40248;SDS011;25969;49.970;11.062;2023-03-20T09:02:42;22.15;;;14.13;;
40248;SDS011;25969;49.970;11.062;2023-03-20T09:12:43;19.07;;;13.03;;
40248;SDS011;25969;49.970;11.062;2023-03-20T09:22:44;21.90;;;14.00;;
40248;SDS011;25969;49.970;11.062;2023-03-20T09:32:45;16.77;;;11.83;;
40248;SDS011;25969;49.970;11.062;2023-03-20T09:53:21;19.65;;;13.05;;
40248;SDS011;25969;49.970;11.062;2023-03-20T10:03:25;22.70;;;14.65;;
40248;SDS011;25969;49.970;11.062;2023-03-20T10:13:38;21.50;;;13.85;;
40248;SDS011;25969;49.970;11.062;2023-03-20T10:23:57;21.58;;;14.73;;
40248;SDS011;25969;49.970;11.062;2023-03-20T10:44:40;21.15;;;13.52;;
40248;SDS011;25969;49.970;11.062;2023-03-20T10:54:49;21.33;;;12.57;;
40248;SDS011;25969;49.970;11.062;2023-03-20T11:04:55;21.55;;;12.18;;
40248;SDS011;25969;49.970;11.062;2023-03-20T11:15:00;17.35;;;11.48;;
40248;SDS011;25969;49.970;11.062;2023-03-20T11:25:22;18.65;;;11.95;;
40248;SDS011;25969;49.970;11.062;2023-03-20T11:35:34;16.60;;;11.73;;
40248;SDS011;25969;49.970;11.062;2023-03-20T11:45:35;17.70;;;11.07;;
40248;SDS011;25969;49.970;11.062;2023-03-20T11:55:41;13.88;;;9.95;;
40248;SDS011;25969;49.970;11.062;2023-03-20T12:05:58;12.38;;;8.75;;
40248;SDS011;25969;49.970;11.062;2023-03-20T12:16:00;13.02;;;9.38;;
40248;SDS011;25969;49.970;11.062;2023-03-20T12:26:11;11.88;;;7.57;;
40248;SDS011;25969;49.970;11.062;2023-03-20T12:36:14;11.57;;;7.95;;
40248;SDS011;25969;49.970;11.062;2023-03-20T12:46:25;16.02;;;8.82;;
40248;SDS011;25969;49.970;11.062;2023-03-20T12:56:46;13.68;;;8.25;;
40248;SDS011;25969;49.970;11.062;2023-03-20T13:17:13;18.15;;;8.98;;
40248;SDS011;25969;49.970;11.062;2023-03-20T13:27:21;15.20;;;9.27;;
40248;SDS011;25969;49.970;11.062;2023-03-20T13:37:49;17.38;;;10.07;;
40248;SDS011;25969;49.970;11.062;2023-03-20T13:47:57;14.95;;;8.75;;
40248;SDS011;25969;49.970;11.062;2023-03-20T13:58:07;11.85;;;7.90;;
40248;SDS011;25969;49.970;11.062;2023-03-20T14:08:19;15.82;;;9.32;;
40248;SDS011;25969;49.970;11.062;2023-03-20T14:18:23;13.95;;;8.23;;
40248;SDS011;25969;49.970;11.062;2023-03-20T14:28:28;15.05;;;8.30;;
40248;SDS011;25969;49.970;11.062;2023-03-20T14:38:36;19.80;;;10.90;;
40248;SDS011;25969;49.970;11.062;2023-03-20T14:48:47;10.98;;;7.82;;
40248;SDS011;25969;49.970;11.062;2023-03-20T14:58:52;10.70;;;7.32;;
40248;SDS011;25969;49.970;11.062;2023-03-20T15:08:57;11.77;;;6.95;;
40248;SDS011;25969;49.970;11.062;2023-03-20T15:19:05;13.35;;;7.13;;
40248;SDS011;25969;49.970;11.062;2023-03-20T15:29:16;10.02;;;6.68;;
40248;SDS011;25969;49.970;11.062;2023-03-20T15:39:25;12.77;;;6.85;;
40248;SDS011;25969;49.970;11.062;2023-03-20T15:49:27;15.70;;;8.85;;
40248;SDS011;25969;49.970;11.062;2023-03-20T15:59:33;9.80;;;6.13;;
40248;SDS011;25969;49.970;11.062;2023-03-20T16:09:41;11.93;;;6.75;;
40248;SDS011;25969;49.970;11.062;2023-03-20T16:19:43;14.23;;;8.52;;
40248;SDS011;25969;49.970;11.062;2023-03-20T16:40:00;11.30;;;6.63;;
40248;SDS011;25969;49.970;11.062;2023-03-20T16:50:22;10.43;;;6.07;;
40248;SDS011;25969;49.970;11.062;2023-03-20T17:00:45;10.33;;;6.53;;
40248;SDS011;25969;49.970;11.062;2023-03-20T17:10:52;13.25;;;6.90;;
40248;SDS011;25969;49.970;11.062;2023-03-20T17:20:56;13.63;;;7.55;;
40248;SDS011;25969;49.970;11.062;2023-03-20T17:30:56;12.53;;;6.93;;
40248;SDS011;25969;49.970;11.062;2023-03-20T17:40:59;12.02;;;7.45;;
40248;SDS011;25969;49.970;11.062;2023-03-20T17:51:00;12.70;;;7.83;;
40248;SDS011;25969;49.970;11.062;2023-03-20T18:01:00;17.23;;;8.37;;
40248;SDS011;25969;49.970;11.062;2023-03-20T18:11:02;16.07;;;7.37;;
40248;SDS011;25969;49.970;11.062;2023-03-20T18:21:03;16.97;;;7.70;;
40248;SDS011;25969;49.970;11.062;2023-03-20T18:31:04;13.80;;;6.87;;
40248;SDS011;25969;49.970;11.062;2023-03-20T18:41:05;11.35;;;6.80;;
40248;SDS011;25969;49.970;11.062;2023-03-20T18:51:06;12.90;;;7.80;;
40248;SDS011;25969;49.970;11.062;2023-03-20T19:01:07;13.00;;;7.20;;
40248;SDS011;25969;49.970;11.062;2023-03-20T19:11:12;10.70;;;6.47;;
40248;SDS011;25969;49.970;11.062;2023-03-20T19:21:16;11.25;;;6.63;;
40248;SDS011;25969;49.970;11.062;2023-03-20T19:31:18;11.23;;;5.67;;
40248;SDS011;25969;49.970;11.062;2023-03-20T19:41:18;9.27;;;5.27;;
40248;SDS011;25969;49.970;11.062;2023-03-20T19:51:23;11.53;;;6.53;;
40248;SDS011;25969;49.970;11.062;2023-03-20T20:01:28;24.83;;;10.38;;
40248;SDS011;25969;49.970;11.062;2023-03-20T20:11:29;11.13;;;6.33;;
40248;SDS011;25969;49.970;11.062;2023-03-20T20:21:30;16.80;;;7.80;;
40248;SDS011;25969;49.970;11.062;2023-03-20T20:31:31;10.57;;;5.60;;
40248;SDS011;25969;49.970;11.062;2023-03-20T20:41:32;10.48;;;6.75;;
40248;SDS011;25969;49.970;11.062;2023-03-20T20:51:33;11.13;;;7.47;;
40248;SDS011;25969;49.970;11.062;2023-03-20T21:01:34;11.13;;;6.03;;
40248;SDS011;25969;49.970;11.062;2023-03-20T21:11:35;11.68;;;6.32;;
40248;SDS011;25969;49.970;11.062;2023-03-20T21:21:36;10.52;;;5.80;;
40248;SDS011;25969;49.970;11.062;2023-03-20T21:31:38;10.23;;;5.97;;
40248;SDS011;25969;49.970;11.062;2023-03-20T21:41:39;11.07;;;6.67;;
40248;SDS011;25969;49.970;11.062;2023-03-20T21:51:40;11.83;;;6.90;;
40248;SDS011;25969;49.970;11.062;2023-03-20T22:01:41;10.70;;;4.97;;
40248;SDS011;25969;49.970;11.062;2023-03-20T22:11:42;10.07;;;4.53;;
40248;SDS011;25969;49.970;11.062;2023-03-20T22:21:46;11.13;;;4.00;;
40248;SDS011;25969;49.970;11.062;2023-03-20T22:31:47;7.18;;;3.78;;
40248;SDS011;25969;49.970;11.062;2023-03-20T22:51:50;5.53;;;3.30;;
